Time;durP1;ratioP1;P1;durP2;ratioP2;P2;SDS_P1;SDS_P2;PMS_P1;PMS_P2;Temp;Humidity;BMP_temperature;BMP_pressure;BME280_temperature;BME280_humidity;BME280_pressure;Samples;Min_cycle;Max_cycle;Signal;HPM_P1;HPM_P2
2023/04/17 00:22:56;;;;;;;0.70;0.50;;;15.30;96.70;;;;;;4945138;28;20559;-71
2023/04/17 00:25:27;;;;;;;0.47;0.35;;;15.30;96.70;;;;;;4948515;28;20166;-70
2023/04/17 00:27:55;;;;;;;0.95;0.40;;;15.10;96.70;;;;;;4948263;28;20039;-72
2023/04/17 02:53:54;;;;;;;0.93;0.32;;;14.00;96.70;;;;;;4933840;28;20141;-71
2023/04/17 02:56:26;;;;;;;0.30;0.25;;;13.70;96.70;;;;;;4960816;28;20085;-71
2023/04/17 02:58:54;;;;;;;0.45;0.30;;;13.90;96.70;;;;;;4964078;28;20066;-71
2023/04/17 03:01:22;;;;;;;0.47;0.30;;;14.10;96.70;;;;;;4962734;28;20377;-71
2023/04/17 03:03:51;;;;;;;1.10;0.68;;;14.00;96.70;;;;;;4962535;28;20061;-71
2023/04/17 04:05:20;;;;;;;2.83;0.85;;;13.70;96.70;;;;;;4947304;28;20855;-72
2023/04/17 04:07:49;;;;;;;1.95;1.00;;;13.60;96.70;;;;;;4980992;28;20039;-73
2023/04/17 04:10:25;;;;;;;2.90;1.15;;;13.60;96.70;;;;;;4960989;28;20082;-73
2023/04/17 04:12:55;;;;;;;3.15;1.00;;;13.70;96.70;;;;;;4961586;28;20082;-73
2023/04/17 04:15:24;;;;;;;4.38;1.05;;;13.60;96.70;;;;;;4958383;28;20116;-73
2023/04/17 04:17:57;;;;;;;1.75;0.82;;;13.60;96.70;;;;;;4960987;28;20047;-73
2023/04/17 04:20:27;;;;;;;1.20;0.80;;;13.60;96.70;;;;;;4959037;28;20038;-72
2023/04/17 04:23:07;;;;;;;2.35;0.93;;;13.40;96.70;;;;;;4955438;28;20567;-72
2023/04/17 04:25:40;;;;;;;2.13;1.00;;;13.30;96.70;;;;;;4961959;28;20039;-73
2023/04/17 04:28:22;;;;;;;1.77;0.75;;;13.50;96.70;;;;;;4978197;28;20047;-72
2023/04/17 04:30:52;;;;;;;4.57;1.30;;;13.60;96.70;;;;;;4961581;28;20046;-72
2023/04/17 04:33:28;;;;;;;2.17;1.10;;;13.40;96.70;;;;;;4961070;28;20054;-72
2023/04/17 04:35:59;;;;;;;1.75;1.00;;;13.10;96.70;;;;;;4982351;28;20074;-72
2023/04/17 04:38:31;;;;;;;2.85;1.13;;;12.90;96.70;;;;;;4947302;28;20055;-73
2023/04/17 04:41:28;;;;;;;3.40;1.13;;;13.00;96.70;;;;;;4951668;28;20074;-71
2023/04/17 04:44:02;;;;;;;1.50;0.85;;;13.20;96.70;;;;;;4964526;28;20141;-71
2023/04/17 04:46:32;;;;;;;3.03;0.82;;;13.20;96.70;;;;;;4950203;28;20134;-71
2023/04/17 04:49:01;;;;;;;2.67;1.02;;;13.30;96.70;;;;;;4948862;28;20050;-72
2023/04/17 04:51:32;;;;;;;2.13;0.95;;;13.50;96.70;;;;;;4947889;28;20387;-71
2023/04/17 04:54:04;;;;;;;2.75;1.20;;;13.40;96.70;;;;;;4963841;28;20038;-72
2023/04/17 04:56:39;;;;;;;2.95;1.60;;;13.50;96.70;;;;;;4964033;28;20043;-71
2023/04/17 04:59:07;;;;;;;3.53;1.80;;;13.60;96.70;;;;;;4964719;28;20042;-71
2023/04/17 05:01:35;;;;;;;4.05;1.65;;;13.60;96.70;;;;;;4962303;28;20039;-72
2023/04/17 05:04:05;;;;;;;3.28;1.23;;;13.60;96.70;;;;;;4948679;28;20050;-72
2023/04/17 05:06:35;;;;;;;3.97;1.42;;;13.60;96.70;;;;;;4963476;28;20062;-70
2023/04/17 05:09:04;;;;;;;4.38;1.40;;;13.60;96.70;;;;;;4947448;28;20535;-71
2023/04/17 05:11:33;;;;;;;3.63;1.30;;;13.60;96.70;;;;;;4964567;28;20054;-70
2023/04/17 05:14:01;;;;;;;3.20;1.40;;;13.70;96.70;;;;;;4963939;28;20149;-71
2023/04/17 05:16:34;;;;;;;3.28;1.35;;;13.70;96.70;;;;;;4949087;28;20055;-71
2023/04/17 05:19:03;;;;;;;4.65;1.10;;;13.80;96.70;;;;;;4948203;28;20558;-71
2023/04/17 05:21:49;;;;;;;3.13;1.55;;;13.90;96.70;;;;;;4964856;28;20038;-70
2023/04/17 05:24:19;;;;;;;4.28;1.50;;;13.50;96.70;;;;;;4963895;28;20058;-71
2023/04/17 05:26:49;;;;;;;3.47;1.75;;;13.40;96.70;;;;;;4964375;28;20567;-71
2023/04/17 05:29:18;;;;;;;4.18;1.35;;;13.50;96.70;;;;;;4964184;28;20042;-71
2023/04/17 05:31:46;;;;;;;5.07;1.48;;;13.50;96.70;;;;;;4963771;28;20042;-71
2023/04/17 05:34:27;;;;;;;3.70;1.40;;;13.60;96.70;;;;;;4962967;28;20045;-71
2023/04/17 05:36:57;;;;;;;6.53;1.85;;;13.90;96.70;;;;;;4962264;28;20055;-70
2023/04/17 05:39:26;;;;;;;3.60;1.45;;;14.00;96.70;;;;;;4967655;28;20043;-71
2023/04/17 05:41:55;;;;;;;3.95;1.45;;;14.00;96.70;;;;;;4964079;28;20124;-71
2023/04/17 05:44:23;;;;;;;3.28;1.50;;;14.10;96.70;;;;;;4965072;28;20132;-71
2023/04/17 05:46:52;;;;;;;1.55;1.10;;;14.00;96.70;;;;;;4987666;28;20055;-71
2023/04/17 05:49:20;;;;;;;6.30;2.17;;;14.00;96.70;;;;;;4963118;28;20141;-71
2023/04/17 05:51:48;;;;;;;3.35;1.17;;;14.00;96.70;;;;;;4963117;28;20157;-71
2023/04/17 05:54:18;;;;;;;3.47;1.30;;;14.20;96.70;;;;;;4945307;28;20049;-71
2023/04/17 05:56:48;;;;;;;3.90;1.40;;;14.30;96.70;;;;;;4962834;28;20043;-71
2023/04/17 05:59:17;;;;;;;3.88;1.40;;;14.50;96.70;;;;;;4962960;28;20106;-71
2023/04/17 06:01:45;;;;;;;4.88;1.45;;;14.60;96.70;;;;;;4961249;28;20374;-70
2023/04/17 06:04:18;;;;;;;5.25;1.50;;;14.50;96.70;;;;;;4962854;28;20062;-71
2023/04/17 06:06:48;;;;;;;7.72;2.33;;;14.60;96.70;;;;;;4947263;28;20053;-70
2023/04/17 06:09:18;;;;;;;7.55;1.95;;;14.60;96.70;;;;;;4960836;28;20492;-71
2023/04/17 06:11:48;;;;;;;7.15;2.53;;;14.50;96.70;;;;;;4969115;28;20054;-71
2023/04/17 06:14:17;;;;;;;6.68;2.33;;;14.60;96.70;;;;;;4962969;28;20051;-71
2023/04/17 06:16:47;;;;;;;4.88;1.90;;;14.70;96.70;;;;;;4964445;28;20525;-71
2023/04/17 06:19:16;;;;;;;6.10;2.30;;;14.80;96.70;;;;;;4945830;28;20138;-70
2023/04/17 06:21:45;;;;;;;9.63;2.72;;;14.90;96.70;;;;;;4962642;28;20413;-71
2023/04/17 06:24:13;;;;;;;6.90;2.25;;;14.90;96.70;;;;;;4964512;28;20047;-71
2023/04/17 06:26:47;;;;;;;6.93;1.80;;;15.00;96.70;;;;;;4947559;28;20047;-71
2023/04/17 06:29:16;;;;;;;6.60;2.08;;;15.00;96.70;;;;;;4962742;28;20226;-71
2023/04/17 06:31:45;;;;;;;6.47;2.10;;;15.00;96.70;;;;;;4959600;28;20038;-71
2023/04/17 06:34:16;;;;;;;5.20;2.03;;;15.00;96.70;;;;;;4963130;28;20074;-71
2023/04/17 06:37:03;;;;;;;5.13;2.30;;;15.00;96.70;;;;;;4962814;28;20124;-71
2023/04/17 06:39:32;;;;;;;6.30;2.40;;;15.10;96.70;;;;;;4959359;28;20086;-71
2023/04/17 06:42:05;;;;;;;5.93;2.08;;;15.20;96.70;;;;;;4962274;28;20101;-71
2023/04/17 06:44:42;;;;;;;4.00;1.55;;;15.30;96.70;;;;;;4962358;28;20051;-71
2023/04/17 06:47:13;;;;;;;7.55;2.05;;;15.40;96.70;;;;;;4962596;28;20635;-71
2023/04/17 06:49:41;;;;;;;4.30;1.75;;;15.40;96.70;;;;;;4965417;28;20128;-72
2023/04/17 06:52:12;;;;;;;4.93;1.65;;;15.50;96.70;;;;;;4964326;28;20417;-72
2023/04/17 06:54:40;;;;;;;3.28;1.88;;;15.50;96.70;;;;;;4963555;28;20113;-72
2023/04/17 06:57:11;;;;;;;4.47;1.85;;;15.70;96.70;;;;;;4962776;28;20153;-71
2023/04/17 06:59:39;;;;;;;4.40;1.63;;;15.70;96.70;;;;;;4938685;28;20065;-71
2023/04/17 07:02:07;;;;;;;3.58;1.42;;;15.80;96.70;;;;;;4963523;28;20085;-73
2023/04/17 07:04:36;;;;;;;3.10;1.17;;;15.90;96.70;;;;;;4962293;28;20062;-72
2023/04/17 07:07:04;;;;;;;2.97;1.20;;;15.90;96.70;;;;;;4961761;28;20042;-72
2023/04/17 07:09:33;;;;;;;3.97;1.10;;;15.90;96.70;;;;;;4961701;28;20504;-73
2023/04/17 07:12:02;;;;;;;3.92;0.88;;;16.00;96.70;;;;;;4961976;28;20035;-71
2023/04/17 07:14:34;;;;;;;1.40;0.60;;;15.90;96.70;;;;;;4963580;28;20072;-72
2023/04/17 07:17:03;;;;;;;1.48;0.85;;;16.00;96.70;;;;;;4973160;28;20050;-72
2023/04/17 07:19:32;;;;;;;2.30;1.00;;;16.00;96.70;;;;;;4961201;28;20055;-71
2023/04/17 07:22:01;;;;;;;0.90;0.50;;;16.00;96.70;;;;;;4961160;28;20050;-71
2023/04/17 07:24:33;;;;;;;1.60;0.60;;;16.00;96.70;;;;;;4962544;28;20090;-72
2023/04/17 07:27:02;;;;;;;1.05;0.80;;;16.10;96.70;;;;;;4961619;28;20616;-72
2023/04/17 07:29:32;;;;;;;1.67;0.88;;;16.10;96.70;;;;;;4974351;28;20035;-71
2023/04/17 07:32:01;;;;;;;1.80;0.95;;;16.20;96.70;;;;;;4973605;28;20577;-72
2023/04/17 07:34:30;;;;;;;1.77;0.75;;;16.20;96.70;;;;;;4963257;28;20042;-72
2023/04/17 07:36:58;;;;;;;1.88;1.13;;;16.30;96.70;;;;;;4960357;28;20051;-71
2023/04/17 07:39:30;;;;;;;2.80;0.98;;;16.30;96.70;;;;;;4961900;28;20461;-71
2023/04/17 07:41:58;;;;;;;1.90;0.98;;;16.30;96.70;;;;;;4964956;28;20050;-71
2023/04/17 07:44:26;;;;;;;1.77;1.02;;;16.40;96.70;;;;;;4963083;28;20117;-71
2023/04/17 07:47:05;;;;;;;2.05;1.13;;;16.40;96.70;;;;;;4960873;28;20105;-70
2023/04/17 07:49:34;;;;;;;2.08;0.90;;;16.40;96.70;;;;;;4961317;28;20511;-71
2023/04/17 07:52:02;;;;;;;2.50;1.33;;;16.50;96.70;;;;;;4961349;28;20133;-73
2023/04/17 07:54:31;;;;;;;2.40;0.90;;;16.50;96.70;;;;;;4961164;28;20039;-72
2023/04/17 07:57:01;;;;;;;1.58;0.88;;;16.60;96.70;;;;;;4961182;28;20138;-72
2023/04/17 07:59:30;;;;;;;0.82;0.60;;;16.60;96.70;;;;;;4944900;28;20418;-72
2023/04/17 08:02:00;;;;;;;1.48;0.82;;;16.60;96.70;;;;;;4965293;28;20592;-71
2023/04/17 08:04:29;;;;;;;2.83;0.85;;;16.60;96.70;;;;;;4962653;28;20125;-71
2023/04/17 08:06:59;;;;;;;1.02;0.50;;;16.70;96.70;;;;;;4948328;28;20054;-72
2023/04/17 08:09:28;;;;;;;0.95;0.52;;;16.70;96.70;;;;;;4961925;28;20101;-72
2023/04/17 08:11:56;;;;;;;0.90;0.70;;;16.80;96.70;;;;;;4964554;28;20137;-72
2023/04/17 08:14:25;;;;;;;1.52;0.80;;;16.80;96.70;;;;;;4965485;28;20055;-71
2023/04/17 08:16:54;;;;;;;0.68;0.60;;;16.80;96.70;;;;;;4966665;28;20475;-72
2023/04/17 08:19:24;;;;;;;0.90;0.60;;;16.80;96.70;;;;;;4965335;28;20809;-71
2023/04/17 08:22:00;;;;;;;0.90;0.63;;;16.90;96.70;;;;;;4966154;28;20062;-71
2023/04/17 08:24:30;;;;;;;0.63;0.60;;;17.00;96.70;;;;;;4966316;28;20069;-72
2023/04/17 08:26:58;;;;;;;0.85;0.50;;;17.00;96.70;;;;;;4965244;28;20051;-71
2023/04/17 08:29:27;;;;;;;0.77;0.70;;;17.20;96.70;;;;;;4964931;28;20117;-71
2023/04/17 08:31:55;;;;;;;1.55;0.68;;;17.30;96.70;;;;;;4967753;28;20057;-71
2023/04/17 08:34:44;;;;;;;0.73;0.57;;;17.30;96.70;;;;;;4965235;28;20130;-72
2023/04/17 08:37:13;;;;;;;0.93;0.80;;;17.40;96.70;;;;;;4964532;28;20051;-71
2023/04/17 08:39:41;;;;;;;1.20;0.80;;;17.30;96.70;;;;;;4971411;28;20065;-72
2023/04/17 08:42:10;;;;;;;1.05;0.90;;;17.30;96.70;;;;;;4969473;28;20481;-72
2023/04/17 08:44:44;;;;;;;0.90;0.80;;;17.30;96.70;;;;;;4963946;28;20086;-72
2023/04/17 08:47:13;;;;;;;1.90;0.75;;;17.40;96.70;;;;;;4959782;28;20043;-72
2023/04/17 08:49:44;;;;;;;1.65;0.70;;;17.40;96.70;;;;;;4966204;28;20042;-72
2023/04/17 08:52:13;;;;;;;0.80;0.60;;;17.40;96.70;;;;;;4965526;28;20057;-72
2023/04/17 08:54:41;;;;;;;0.70;0.70;;;17.50;96.70;;;;;;4965310;28;20042;-73
2023/04/17 08:57:09;;;;;;;0.82;0.55;;;17.50;96.70;;;;;;4962804;28;20054;-72
2023/04/17 08:59:38;;;;;;;1.25;0.70;;;17.50;96.70;;;;;;4957463;28;20053;-72
2023/04/17 09:02:07;;;;;;;0.52;0.52;;;17.50;96.70;;;;;;4963809;28;20054;-71
2023/04/17 09:04:37;;;;;;;0.45;0.40;;;17.60;96.70;;;;;;4965310;28;20058;-71
2023/04/17 09:07:08;;;;;;;0.90;0.50;;;17.80;96.70;;;;;;4965452;28;20059;-71
2023/04/17 09:09:55;;;;;;;0.95;0.47;;;17.90;96.70;;;;;;4964702;28;20056;-71
2023/04/17 09:12:24;;;;;;;0.52;0.50;;;17.90;96.70;;;;;;4960327;28;20046;-72
2023/04/17 09:14:53;;;;;;;0.65;0.60;;;17.90;96.70;;;;;;4948407;28;20047;-71
2023/04/17 09:17:21;;;;;;;0.60;0.40;;;17.90;96.70;;;;;;4965300;28;20066;-71
2023/04/17 09:20:13;;;;;;;0.63;0.57;;;17.90;96.70;;;;;;4947304;28;20047;-71
2023/04/17 09:22:43;;;;;;;0.60;0.50;;;18.00;96.70;;;;;;4976086;28;20080;-72
2023/04/17 09:25:16;;;;;;;0.77;0.55;;;18.10;96.70;;;;;;4971045;28;20117;-73
2023/04/17 09:27:45;;;;;;;0.90;0.50;;;18.10;96.70;;;;;;4947134;28;20051;-73
2023/04/17 09:30:14;;;;;;;1.17;0.35;;;18.20;96.70;;;;;;4964580;28;20382;-72
2023/04/17 09:32:42;;;;;;;0.98;0.50;;;18.20;96.70;;;;;;4963200;28;20051;-72
2023/04/17 09:35:24;;;;;;;0.47;0.47;;;18.20;96.70;;;;;;4949084;28;20050;-72
2023/04/17 09:37:58;;;;;;;1.38;0.60;;;18.20;96.70;;;;;;4964965;28;20101;-73
2023/04/17 09:40:36;;;;;;;1.00;0.70;;;18.10;96.70;;;;;;4964721;28;20054;-72
2023/04/17 09:43:06;;;;;;;2.10;1.00;;;18.10;96.70;;;;;;4964935;28;20050;-73
2023/04/17 09:45:40;;;;;;;1.02;0.77;;;18.00;96.70;;;;;;4962044;28;20049;-72
2023/04/17 09:48:11;;;;;;;1.00;0.70;;;18.10;96.70;;;;;;4965052;28;20053;-72
2023/04/17 09:50:39;;;;;;;0.80;0.57;;;18.10;96.70;;;;;;4965525;28;20039;-72
2023/04/17 09:53:10;;;;;;;1.17;0.77;;;17.90;96.70;;;;;;4963034;28;20054;-72
2023/04/17 09:55:42;;;;;;;0.75;0.57;;;18.00;96.70;;;;;;4960853;28;20057;-72
2023/04/17 09:58:11;;;;;;;1.58;0.90;;;18.10;96.70;;;;;;4963537;28;20060;-73
2023/04/17 10:00:41;;;;;;;1.40;0.70;;;18.10;96.70;;;;;;4962898;28;20488;-73
2023/04/17 10:03:14;;;;;;;1.25;0.77;;;18.10;96.70;;;;;;4964163;28;20045;-72
2023/04/17 10:05:43;;;;;;;1.27;0.60;;;18.00;96.70;;;;;;4956776;28;20082;-72
2023/04/17 10:08:13;;;;;;;0.75;0.70;;;18.00;96.70;;;;;;4968753;28;20047;-73
2023/04/17 10:10:42;;;;;;;1.08;0.73;;;18.00;96.70;;;;;;4962970;28;20061;-72
2023/04/17 10:13:11;;;;;;;1.00;0.70;;;18.00;96.70;;;;;;4964641;28;20047;-73
2023/04/17 10:15:40;;;;;;;0.70;0.60;;;18.20;96.70;;;;;;4962281;28;20061;-73
2023/04/17 10:18:21;;;;;;;1.42;0.88;;;18.00;96.70;;;;;;4960880;28;20093;-73
2023/04/17 10:20:52;;;;;;;1.15;0.70;;;18.00;96.70;;;;;;4963037;28;20050;-73
2023/04/17 10:23:32;;;;;;;1.83;0.52;;;18.10;96.70;;;;;;4964092;28;20049;-73
2023/04/17 10:26:38;;;;;;;0.55;0.50;;;18.20;96.70;;;;;;4969653;28;20058;-73
2023/04/17 10:29:54;;;;;;;1.13;0.60;;;18.30;96.70;;;;;;4963691;28;20062;-73
2023/04/17 10:32:24;;;;;;;2.15;0.98;;;18.40;96.70;;;;;;4964155;28;20125;-72
2023/04/17 10:34:54;;;;;;;0.52;0.45;;;18.60;96.70;;;;;;4971100;28;20112;-72
2023/04/17 10:38:10;;;;;;;2.67;1.25;;;18.70;96.70;;;;;;4959551;28;20129;-72
2023/04/17 10:40:43;;;;;;;0.65;0.50;;;18.80;96.70;;;;;;4964551;28;20125;-72
2023/04/17 10:43:30;;;;;;;1.15;0.43;;;18.70;96.70;;;;;;4963026;28;20063;-72
2023/04/17 10:46:08;;;;;;;0.95;0.60;;;18.60;96.70;;;;;;4963044;28;20051;-72
2023/04/17 10:48:40;;;;;;;0.80;0.60;;;18.70;96.70;;;;;;4970034;28;20420;-72
2023/04/17 10:51:42;;;;;;;1.15;0.40;;;18.70;96.70;;;;;;4963563;28;20388;-72
2023/04/17 10:54:14;;;;;;;0.60;0.40;;;18.70;96.70;;;;;;4961155;28;20066;-72
2023/04/17 10:56:46;;;;;;;0.65;0.52;;;18.70;96.70;;;;;;4958823;28;20703;-72
2023/04/17 11:02:49;;;;;;;1.60;0.60;;;18.80;96.70;;;;;;4944709;28;21003;-72
2023/04/17 11:05:18;;;;;;;1.40;0.50;;;19.00;96.70;;;;;;4940990;28;20143;-72
2023/04/17 11:07:49;;;;;;;0.63;0.50;;;19.00;96.70;;;;;;4940236;28;20062;-72
2023/04/17 11:10:19;;;;;;;0.60;0.50;;;19.20;96.70;;;;;;4916622;28;20095;-73
2023/04/17 11:12:52;;;;;;;0.85;0.50;;;19.20;96.70;;;;;;4940699;28;20043;-72
2023/04/17 11:15:26;;;;;;;1.38;0.50;;;19.10;96.70;;;;;;4925279;29;20090;-73
2023/04/17 11:17:55;;;;;;;0.80;0.63;;;19.00;96.70;;;;;;4940945;28;20059;-72
2023/04/17 11:20:24;;;;;;;0.70;0.50;;;18.90;96.70;;;;;;4924363;28;20059;-72
2023/04/17 11:22:53;;;;;;;0.80;0.60;;;18.80;96.70;;;;;;4940625;28;20059;-73
2023/04/17 11:25:23;;;;;;;1.50;0.50;;;18.80;96.70;;;;;;4941036;28;20046;-72
2023/04/17 11:27:55;;;;;;;0.93;0.60;;;18.70;96.70;;;;;;4938845;28;20140;-72
2023/04/17 11:30:29;;;;;;;0.70;0.57;;;18.50;96.70;;;;;;4939744;28;20063;-72
2023/04/17 11:32:59;;;;;;;0.65;0.50;;;18.40;96.70;;;;;;4943001;28;20055;-72
2023/04/17 11:35:29;;;;;;;0.50;0.47;;;18.30;96.70;;;;;;4968129;28;20046;-71
2023/04/17 11:38:05;;;;;;;0.77;0.57;;;18.30;96.70;;;;;;4962873;28;20054;-71
2023/04/17 11:40:33;;;;;;;2.73;0.50;;;18.20;96.70;;;;;;4968212;28;20134;-72
2023/04/17 11:43:10;;;;;;;1.42;0.68;;;18.20;96.70;;;;;;4962427;28;20090;-72
2023/04/17 11:45:40;;;;;;;0.90;0.60;;;18.10;96.70;;;;;;4960860;28;20043;-71
2023/04/17 11:48:10;;;;;;;1.98;0.60;;;18.00;96.70;;;;;;4961541;28;20066;-71
2023/04/17 11:50:39;;;;;;;0.75;0.57;;;17.90;96.70;;;;;;4960823;28;20069;-71
2023/04/17 11:53:11;;;;;;;0.60;0.60;;;17.70;96.70;;;;;;4962144;28;20050;-72
2023/04/17 11:55:39;;;;;;;0.95;0.65;;;17.70;96.70;;;;;;4949299;28;20516;-73
2023/04/17 11:58:10;;;;;;;1.23;0.50;;;17.60;96.70;;;;;;4961231;28;20573;-73
2023/04/17 12:00:39;;;;;;;1.20;0.55;;;17.60;96.70;;;;;;4961077;28;20050;-73
2023/04/17 12:03:32;;;;;;;1.45;0.60;;;17.50;96.70;;;;;;4962956;28;20050;-72
2023/04/17 12:06:02;;;;;;;0.60;0.60;;;17.50;96.70;;;;;;4956154;28;20062;-72
2023/04/17 12:08:39;;;;;;;0.88;0.70;;;17.50;96.70;;;;;;4962486;28;20153;-72
2023/04/17 12:11:14;;;;;;;1.08;0.60;;;17.60;96.70;;;;;;4961755;28;20323;-72
2023/04/17 12:13:44;;;;;;;0.90;0.70;;;17.70;96.70;;;;;;4962221;28;20412;-72
2023/04/17 12:16:12;;;;;;;1.15;0.60;;;17.80;96.70;;;;;;4961935;28;20313;-72
2023/04/17 12:18:40;;;;;;;0.63;0.50;;;17.90;96.70;;;;;;4963034;28;20403;-72
2023/04/17 12:21:08;;;;;;;0.77;0.50;;;17.90;96.70;;;;;;4961061;28;20047;-73
2023/04/17 12:23:36;;;;;;;0.88;0.47;;;17.90;96.70;;;;;;4960984;28;20141;-73
2023/04/17 12:26:05;;;;;;;0.60;0.50;;;18.00;96.70;;;;;;4944626;28;20234;-72
2023/04/17 12:28:33;;;;;;;1.05;0.52;;;18.20;96.70;;;;;;4961019;28;20054;-73
2023/04/17 12:31:18;;;;;;;0.82;0.50;;;18.30;96.70;;;;;;4962601;28;20038;-72
2023/04/17 12:33:46;;;;;;;1.85;0.80;;;18.40;96.70;;;;;;4956631;28;20050;-72
2023/04/17 12:36:14;;;;;;;4.18;0.85;;;18.50;96.70;;;;;;4961556;28;20071;-73
2023/04/17 12:38:42;;;;;;;4.28;0.70;;;18.70;96.70;;;;;;4960175;28;20418;-72
2023/04/17 12:41:10;;;;;;;0.75;0.63;;;18.90;96.70;;;;;;4961369;28;20053;-73
2023/04/17 12:43:38;;;;;;;3.08;0.60;;;19.10;96.70;;;;;;4960826;28;20039;-71
2023/04/17 12:46:06;;;;;;;1.02;0.57;;;19.10;96.70;;;;;;4961472;28;20435;-73
2023/04/17 12:48:35;;;;;;;0.60;0.50;;;19.10;96.70;;;;;;4960707;28;20489;-72
2023/04/17 12:51:03;;;;;;;1.23;0.50;;;19.00;96.70;;;;;;4960689;28;20050;-72
2023/04/17 12:53:31;;;;;;;1.38;0.57;;;18.90;96.70;;;;;;4961493;28;20039;-72
2023/04/17 12:55:59;;;;;;;0.70;0.55;;;18.70;96.70;;;;;;4953636;28;20558;-70
2023/04/17 12:58:27;;;;;;;0.55;0.47;;;18.60;96.70;;;;;;4963855;28;20042;-70
2023/04/17 13:01:27;;;;;;;1.02;0.50;;;18.50;96.70;;;;;;4964605;28;20411;-72
2023/04/17 13:03:57;;;;;;;0.52;0.52;;;18.40;96.70;;;;;;4964212;28;20066;-71
2023/04/17 13:06:26;;;;;;;2.47;0.70;;;18.30;96.70;;;;;;4963740;28;20149;-71
2023/04/17 13:08:54;;;;;;;0.60;0.40;;;18.30;96.70;;;;;;4962505;28;20047;-71
2023/04/17 13:11:22;;;;;;;0.60;0.55;;;18.40;96.70;;;;;;4964942;28;20043;-71
2023/04/17 13:13:50;;;;;;;2.58;0.70;;;18.40;96.70;;;;;;4963762;28;20137;-72
2023/04/17 13:16:18;;;;;;;1.80;0.70;;;18.50;96.70;;;;;;4965158;28;20054;-71
2023/04/17 13:18:46;;;;;;;0.68;0.43;;;18.40;96.70;;;;;;4965662;28;20488;-71
2023/04/17 13:21:16;;;;;;;0.70;0.60;;;18.40;96.70;;;;;;4963826;28;20065;-71
2023/04/17 13:23:44;;;;;;;0.85;0.47;;;18.40;96.70;;;;;;4964145;28;20039;-71
2023/04/17 13:26:12;;;;;;;1.50;0.60;;;18.40;96.70;;;;;;4963411;28;20046;-71
2023/04/17 13:28:40;;;;;;;0.45;0.45;;;18.30;96.70;;;;;;4947605;28;20162;-72
2023/04/17 13:31:08;;;;;;;0.93;0.73;;;18.40;96.70;;;;;;4966862;28;20043;-74
2023/04/17 13:33:39;;;;;;;0.93;0.60;;;18.30;96.70;;;;;;4960796;28;21276;-70
2023/04/17 13:36:07;;;;;;;0.63;0.50;;;18.20;96.70;;;;;;4962651;28;20050;-71
2023/04/17 13:38:37;;;;;;;0.60;0.52;;;18.20;96.70;;;;;;4964235;28;20047;-71
2023/04/17 13:41:05;;;;;;;1.00;0.60;;;18.10;96.70;;;;;;4968064;28;20518;-70
2023/04/17 13:43:32;;;;;;;0.77;0.52;;;18.00;96.70;;;;;;4961385;28;20043;-71
2023/04/17 13:46:01;;;;;;;1.90;0.82;;;18.00;96.70;;;;;;4964664;28;20743;-71
2023/04/17 13:48:29;;;;;;;0.88;0.60;;;17.90;96.70;;;;;;4964762;28;20057;-71
2023/04/17 13:51:03;;;;;;;0.80;0.50;;;17.90;96.70;;;;;;4964558;28;20178;-71
2023/04/17 13:53:31;;;;;;;0.63;0.50;;;17.90;96.70;;;;;;4962820;28;20047;-71
2023/04/17 13:56:01;;;;;;;1.23;0.40;;;17.90;96.70;;;;;;4957781;28;20074;-71
2023/04/17 13:58:29;;;;;;;1.73;0.73;;;18.00;96.70;;;;;;4963660;28;20161;-71
2023/04/17 14:00:57;;;;;;;1.50;0.50;;;18.10;96.70;;;;;;4946922;28;20054;-71
2023/04/17 14:03:26;;;;;;;0.75;0.60;;;18.10;96.70;;;;;;4963249;28;20051;-70
2023/04/17 14:05:55;;;;;;;1.00;0.55;;;18.20;96.70;;;;;;4962099;28;20096;-71
2023/04/17 14:08:23;;;;;;;0.57;0.50;;;18.20;96.70;;;;;;4963751;28;20051;-70
2023/04/17 14:10:51;;;;;;;0.95;0.47;;;18.50;96.70;;;;;;4964403;28;20536;-71
2023/04/17 14:13:20;;;;;;;1.92;0.60;;;18.70;96.70;;;;;;4963365;28;20051;-70
2023/04/17 14:15:51;;;;;;;4.35;0.85;;;18.80;96.70;;;;;;4967310;28;20038;-71
2023/04/17 14:18:24;;;;;;;0.70;0.60;;;19.00;96.70;;;;;;4962595;28;20054;-72
2023/04/17 14:20:52;;;;;;;0.60;0.60;;;19.90;96.70;;;;;;4963161;28;20055;-71
2023/04/17 14:23:21;;;;;;;0.60;0.55;;;21.10;96.70;;;;;;4946904;28;20046;-70
2023/04/17 14:25:49;;;;;;;1.83;0.80;;;21.40;96.70;;;;;;4964407;28;20046;-71
2023/04/17 14:28:17;;;;;;;1.27;0.70;;;22.00;96.70;;;;;;4962838;28;20047;-71
2023/04/17 14:30:47;;;;;;;2.42;1.23;;;22.70;96.70;;;;;;4962329;28;20718;-71
2023/04/17 14:33:15;;;;;;;2.10;1.33;;;22.90;96.70;;;;;;4965067;28;20081;-71
2023/04/17 14:35:43;;;;;;;2.38;0.98;;;22.60;96.70;;;;;;4962044;28;20057;-71
2023/04/17 14:38:11;;;;;;;2.13;1.02;;;23.20;96.70;;;;;;4962140;28;20307;-71
2023/04/17 14:40:39;;;;;;;0.80;0.65;;;22.50;96.70;;;;;;4969546;28;20061;-70
2023/04/17 14:43:07;;;;;;;3.13;1.05;;;22.60;96.70;;;;;;4963826;28;20053;-71
2023/04/17 14:45:35;;;;;;;2.28;1.10;;;21.70;96.70;;;;;;4962352;28;20596;-71
2023/04/17 14:48:05;;;;;;;1.88;0.80;;;21.20;96.70;;;;;;4963171;28;20049;-72
2023/04/17 14:50:33;;;;;;;1.23;0.68;;;21.10;96.70;;;;;;4960179;28;20150;-71
2023/04/17 14:53:03;;;;;;;1.92;0.73;;;21.00;96.70;;;;;;4963461;28;20042;-71
2023/04/17 14:55:31;;;;;;;1.67;0.77;;;21.10;96.70;;;;;;4963697;28;20065;-71
2023/04/17 14:57:59;;;;;;;2.00;0.90;;;21.00;96.70;;;;;;4946246;28;20057;-71
2023/04/17 15:00:27;;;;;;;1.77;0.95;;;20.70;96.70;;;;;;4961912;28;20050;-71
2023/04/17 15:02:55;;;;;;;1.52;0.90;;;20.50;96.70;;;;;;4945348;28;20081;-71
2023/04/17 15:05:38;;;;;;;1.15;0.77;;;20.30;96.70;;;;;;4954864;28;20063;-71
2023/04/17 15:08:06;;;;;;;1.10;0.80;;;20.10;96.70;;;;;;4963191;28;20047;-71
2023/04/17 15:10:34;;;;;;;1.15;0.80;;;20.00;96.70;;;;;;4962620;28;20520;-71
2023/04/17 15:13:17;;;;;;;1.30;0.88;;;19.80;96.70;;;;;;4956479;28;20058;-72
2023/04/17 15:15:45;;;;;;;2.22;0.88;;;19.70;96.70;;;;;;4963624;28;20043;-71
2023/04/17 15:18:13;;;;;;;0.90;0.80;;;19.50;96.70;;;;;;4961749;28;20050;-71
2023/04/17 15:20:42;;;;;;;0.98;0.80;;;19.50;96.70;;;;;;4962134;28;20047;-71
2023/04/17 15:23:10;;;;;;;0.73;0.73;;;19.40;96.70;;;;;;4966696;28;20055;-72
2023/04/17 15:25:38;;;;;;;0.80;0.70;;;19.30;96.70;;;;;;4962395;28;20575;-72
2023/04/17 15:28:06;;;;;;;1.10;0.75;;;19.20;96.70;;;;;;4963071;28;20524;-71
2023/04/17 15:30:34;;;;;;;1.67;0.93;;;19.20;96.70;;;;;;4961095;28;20575;-72
2023/04/17 15:33:02;;;;;;;1.10;0.80;;;19.30;96.70;;;;;;4963135;28;20489;-72
2023/04/17 15:35:29;;;;;;;1.10;1.00;;;19.30;96.70;;;;;;4962732;28;20039;-71
2023/04/17 15:37:59;;;;;;;1.00;0.80;;;19.20;96.70;;;;;;4961607;28;20846;-72
2023/04/17 15:40:27;;;;;;;2.10;0.93;;;19.20;96.70;;;;;;4970820;28;20054;-72
2023/04/17 15:42:55;;;;;;;1.02;0.93;;;19.30;96.70;;;;;;4962236;28;20061;-71
2023/04/17 15:45:24;;;;;;;1.90;0.90;;;19.40;96.70;;;;;;4964610;28;20043;-71
2023/04/17 15:47:53;;;;;;;1.15;0.60;;;19.30;96.70;;;;;;4964792;28;20117;-72
2023/04/17 15:50:21;;;;;;;1.83;0.73;;;19.20;96.70;;;;;;4945517;28;20579;-72
2023/04/17 15:52:49;;;;;;;1.02;0.60;;;19.10;96.70;;;;;;4961523;28;20868;-71
2023/04/17 15:55:19;;;;;;;0.73;0.60;;;19.20;96.70;;;;;;4963008;28;20830;-70
2023/04/17 15:57:52;;;;;;;1.35;0.80;;;19.50;96.70;;;;;;4960432;28;20051;-71
2023/04/17 16:00:20;;;;;;;0.95;0.70;;;19.50;96.70;;;;;;4959696;28;20129;-71
2023/04/17 16:02:48;;;;;;;0.82;0.50;;;19.50;96.70;;;;;;4954196;28;20043;-71
2023/04/17 16:05:17;;;;;;;0.63;0.57;;;19.50;96.70;;;;;;4962156;28;20059;-71
2023/04/17 16:07:45;;;;;;;1.23;0.73;;;19.40;96.70;;;;;;4961459;28;20057;-71
2023/04/17 16:10:13;;;;;;;1.88;0.65;;;19.60;96.70;;;;;;4961406;28;20079;-70
2023/04/17 16:12:56;;;;;;;2.13;0.90;;;19.40;96.70;;;;;;4959187;28;20075;-71
2023/04/17 16:15:24;;;;;;;2.55;0.80;;;19.20;96.70;;;;;;4959353;28;20515;-70
2023/04/17 16:17:52;;;;;;;1.50;0.80;;;19.00;96.70;;;;;;4962211;28;20086;-71
2023/04/17 16:20:21;;;;;;;1.98;1.50;;;19.00;96.70;;;;;;4945157;28;20141;-70
2023/04/17 16:22:49;;;;;;;1.48;1.05;;;18.80;96.70;;;;;;4959941;28;20416;-71
2023/04/17 16:25:17;;;;;;;2.55;1.17;;;18.70;96.70;;;;;;4962070;28;20051;-72
2023/04/17 16:27:48;;;;;;;1.02;0.70;;;18.60;96.70;;;;;;4961997;28;20067;-70
2023/04/17 16:30:16;;;;;;;2.78;0.90;;;18.60;96.70;;;;;;4959368;28;20051;-71
2023/04/17 16:32:47;;;;;;;1.60;1.23;;;18.70;96.70;;;;;;4975729;28;20437;-70
2023/04/17 16:35:16;;;;;;;1.70;1.30;;;18.50;96.70;;;;;;4963193;28;20083;-71
2023/04/17 16:37:44;;;;;;;1.75;1.17;;;18.60;96.70;;;;;;4964325;28;20047;-71
2023/04/17 16:40:12;;;;;;;1.88;1.15;;;18.60;96.70;;;;;;4962303;28;20046;-71
2023/04/17 16:42:40;;;;;;;2.35;0.90;;;18.70;96.70;;;;;;4962758;28;20046;-70
2023/04/17 16:45:10;;;;;;;2.97;1.52;;;18.80;96.70;;;;;;4964365;28;20678;-70
2023/04/17 16:47:38;;;;;;;2.00;1.45;;;19.00;96.70;;;;;;4964238;28;20073;-72
2023/04/17 16:50:07;;;;;;;2.33;1.60;;;19.40;96.70;;;;;;4965338;28;20130;-72
2023/04/17 16:52:39;;;;;;;2.63;1.48;;;19.70;96.70;;;;;;4963196;28;20057;-72
2023/04/17 16:55:08;;;;;;;3.25;1.30;;;19.60;96.70;;;;;;4965157;28;20047;-71